createdAt,value
2022-10-18T11:00:47.849Z,10.60
2022-10-18T11:11:10.869Z,7.40
2022-10-18T11:21:35.876Z,6.50
2022-10-18T11:32:21.885Z,6.00
2022-10-18T11:42:50.905Z,6.40
2022-10-18T11:53:21.893Z,6.40
2022-10-18T12:03:58.902Z,6.20
2022-10-18T12:14:19.927Z,6.40
2022-10-18T12:24:36.937Z,7.00
2022-10-18T12:34:54.948Z,6.20
2022-10-18T12:45:32.950Z,7.20
2022-10-18T12:55:55.956Z,5.80
2022-10-18T13:06:08.966Z,6.60
2022-10-18T13:16:30.957Z,7.80
2022-10-18T13:27:31.078Z,7.00
2022-10-18T13:37:41.981Z,6.80
2022-10-18T13:48:02.007Z,6.90
2022-10-18T13:58:15.025Z,7.00
2022-10-18T14:08:32.002Z,7.60
2022-10-18T14:18:48.032Z,8.10
2022-10-18T14:29:13.098Z,7.30
2022-10-18T14:39:32.035Z,8.20
2022-10-18T14:49:54.042Z,8.30
2022-10-18T15:00:10.040Z,7.70
2022-10-18T15:10:26.067Z,9.40
2022-10-18T15:20:41.057Z,9.20
2022-10-18T15:30:54.084Z,8.60
2022-10-18T15:41:06.070Z,8.90
2022-10-18T15:52:07.096Z,9.40
2022-10-18T16:02:21.103Z,10.30
2022-10-18T16:12:34.087Z,10.70
2022-10-18T16:22:47.159Z,10.80
2022-10-18T16:33:00.175Z,10.80
2022-10-18T16:43:13.233Z,12.20
2022-10-18T16:53:27.228Z,12.50
2022-10-18T17:03:40.242Z,12.10
2022-10-18T17:13:53.202Z,12.30
2022-10-18T17:24:08.171Z,12.60
2022-10-18T17:34:27.355Z,11.30
2022-10-18T17:44:40.260Z,12.00
2022-10-18T17:54:53.291Z,12.20
2022-10-18T18:05:06.188Z,16.00
2022-10-18T18:15:20.257Z,16.50
2022-10-18T18:25:33.285Z,16.80
2022-10-18T18:35:46.306Z,18.90
2022-10-18T18:46:06.331Z,17.70
2022-10-18T18:56:25.314Z,19.20
2022-10-18T19:06:46.321Z,17.10
2022-10-18T19:17:01.282Z,16.60
2022-10-18T19:27:22.246Z,16.70
2022-10-18T19:37:35.482Z,7.70
2022-10-18T19:47:55.263Z,8.00
2022-10-18T19:58:08.288Z,8.20
2022-10-18T20:08:21.295Z,6.60
2022-10-18T20:18:34.292Z,6.30
2022-10-18T20:28:47.367Z,6.70
2022-10-18T20:39:01.307Z,6.40
2022-10-18T20:49:22.314Z,4.60
2022-10-18T20:59:35.302Z,5.00
2022-10-18T21:09:48.343Z,4.30
2022-10-18T21:20:01.305Z,4.30
2022-10-18T21:30:14.429Z,5.30
2022-10-18T21:40:27.354Z,5.80
2022-10-18T21:50:46.352Z,5.60
2022-10-18T22:00:59.441Z,5.80
2022-10-18T22:11:12.380Z,5.40
2022-10-18T22:21:26.370Z,5.50
2022-10-18T22:31:41.394Z,4.80
2022-10-18T22:41:54.386Z,4.80
2022-10-18T22:52:07.416Z,5.20
2022-10-18T23:02:20.393Z,6.10
2022-10-18T23:12:32.700Z,6.10
2022-10-18T23:22:45.406Z,6.00
2022-10-18T23:32:58.435Z,6.60
2022-10-18T23:43:11.436Z,10.70
2022-10-18T23:53:24.464Z,13.60
